Terminal Aerodrome Forecast
Issued by NWS Jacksonville, FL

Current Version | Previous Version | Text Only | Print | Product List | Glossary On
Versions: 1 2 3 4 5 6 7 8 9 10 11 12 13 14 15 16 17 18 19 20 21
000
FTUS42 KJAX 020500
TAFJAX
TAF
KJAX 020537Z 0206/0306 00000KT P6SM SCT030 BKN060
     FM020900 00000KT 5SM BR BKN030 BKN060
     FM021300 05006KT P6SM SCT030 BKN060
     FM021800 06009KT P6SM SCT035 BKN070
     FM030000 07004KT P6SM FEW035 BKN060=

USA.gov is the U.S. government's official web portal to all federal, state and local government web resources and services.